createdAt,value
2022-11-27T00:01:27.334Z,13.10
2022-11-27T00:03:56.600Z,13.50
2022-11-27T00:06:26.982Z,13.70
2022-11-27T00:08:56.909Z,14.80
2022-11-27T00:11:26.279Z,13.30
2022-11-27T00:13:55.129Z,13.00
2022-11-27T00:16:25.159Z,14.30
2022-11-27T00:18:54.119Z,14.10
2022-11-27T00:21:24.262Z,13.70
2022-11-27T00:23:53.860Z,13.10
2022-11-27T00:26:23.023Z,12.90
2022-11-27T00:28:52.336Z,12.50
2022-11-27T00:31:22.829Z,13.60
2022-11-27T00:33:53.666Z,14.30
2022-11-27T00:36:22.375Z,14.00
2022-11-27T00:38:51.127Z,14.70
2022-11-27T00:41:21.613Z,14.00
2022-11-27T00:43:50.702Z,15.60
2022-11-27T00:46:28.056Z,15.00
2022-11-27T00:48:57.818Z,13.80
2022-11-27T00:51:26.909Z,13.20
2022-11-27T00:53:56.072Z,14.10
2022-11-27T00:56:26.382Z,15.30
2022-11-27T00:58:55.421Z,13.80
2022-11-27T01:01:25.878Z,13.80
2022-11-27T01:03:55.108Z,14.20
2022-11-27T01:06:24.558Z,14.20
2022-11-27T01:08:53.381Z,15.60
2022-11-27T01:11:25.735Z,15.30
2022-11-27T01:13:56.371Z,13.20
2022-11-27T01:16:26.151Z,15.30
2022-11-27T01:18:56.354Z,15.60
2022-11-27T01:21:25.965Z,15.70
2022-11-27T01:23:55.149Z,15.20
2022-11-27T01:26:24.575Z,14.70
2022-11-27T01:37:04.701Z,13.00
2022-11-27T01:39:33.460Z,12.90
2022-11-27T01:42:02.162Z,13.00
2022-11-27T01:44:30.872Z,13.30
2022-11-27T01:47:01.855Z,13.40
2022-11-27T01:49:30.540Z,12.70
2022-11-27T01:52:01.973Z,11.00
2022-11-27T01:54:43.219Z,13.00
2022-11-27T01:57:39.020Z,13.70
2022-11-27T02:00:09.075Z,14.20
2022-11-27T02:02:37.793Z,12.50
2022-11-27T02:05:07.152Z,13.50
2022-11-27T02:07:36.229Z,14.50
2022-11-27T02:10:05.649Z,14.20
2022-11-27T02:12:45.362Z,13.80
2022-11-27T02:15:17.185Z,14.00
2022-11-27T02:17:51.666Z,14.10
2022-11-27T02:20:43.904Z,13.30
2022-11-27T02:23:22.307Z,12.20
2022-11-27T02:26:09.828Z,13.60
2022-11-27T02:28:57.770Z,12.00
2022-11-27T02:31:37.374Z,13.10
2022-11-27T02:34:14.770Z,13.30
2022-11-27T02:36:46.198Z,12.80
2022-11-27T02:39:17.712Z,12.40
2022-11-27T02:41:53.120Z,12.70
2022-11-27T02:44:22.899Z,12.00
2022-11-27T02:46:52.656Z,13.60
2022-11-27T02:49:21.755Z,13.20
2022-11-27T02:51:59.064Z,12.90
2022-11-27T02:59:06.498Z,12.20
2022-11-27T03:01:38.805Z,11.50
2022-11-27T03:04:09.787Z,12.50
2022-11-27T03:06:43.780Z,13.30
2022-11-27T03:09:15.570Z,13.00
2022-11-27T03:11:44.792Z,13.10
2022-11-27T03:14:14.248Z,14.00
2022-11-27T03:16:46.012Z,13.20
2022-11-27T03:19:14.720Z,13.70
2022-11-27T03:21:53.831Z,11.90
2022-11-27T03:24:23.116Z,12.10
2022-11-27T03:26:52.178Z,14.00
2022-11-27T03:29:23.426Z,12.40
2022-11-27T03:31:52.828Z,14.10
2022-11-27T03:34:21.534Z,13.20
2022-11-27T03:36:50.228Z,12.90
2022-11-27T03:39:19.444Z,12.60
2022-11-27T03:41:53.745Z,14.10
2022-11-27T03:44:31.515Z,13.00
2022-11-27T03:47:32.886Z,11.80
2022-11-27T03:50:04.598Z,12.30
2022-11-27T03:52:43.635Z,12.30
2022-11-27T03:55:25.825Z,12.60
2022-11-27T03:58:01.942Z,13.10
2022-11-27T04:00:32.109Z,12.70
2022-11-27T04:03:02.268Z,12.10
2022-11-27T04:05:31.198Z,12.00
2022-11-27T04:07:59.905Z,12.80
2022-11-27T04:10:28.653Z,12.40
2022-11-27T04:12:57.323Z,12.30
2022-11-27T04:15:26.088Z,12.90
2022-11-27T04:17:55.248Z,12.20
2022-11-27T04:20:23.954Z,12.30
2022-11-27T04:22:52.663Z,12.10
2022-11-27T04:25:21.712Z,12.40
2022-11-27T04:27:50.834Z,12.00
2022-11-27T04:30:19.876Z,12.00
2022-11-27T04:32:48.567Z,11.90
2022-11-27T04:35:17.307Z,12.00
2022-11-27T04:37:46.090Z,11.50
2022-11-27T04:40:15.154Z,11.70
2022-11-27T04:42:43.975Z,11.00
2022-11-27T04:45:12.708Z,11.50
2022-11-27T04:47:41.411Z,11.40
2022-11-27T04:50:10.634Z,11.70
2022-11-27T04:52:39.331Z,11.50
2022-11-27T04:55:08.434Z,12.10
2022-11-27T04:57:37.397Z,11.50
2022-11-27T05:00:06.808Z,11.60
2022-11-27T05:02:35.595Z,11.30
2022-11-27T05:05:04.644Z,12.00
2022-11-27T05:07:33.491Z,11.00
2022-11-27T05:10:02.315Z,11.50
2022-11-27T05:12:31.093Z,11.10
2022-11-27T05:15:04.168Z,10.60
2022-11-27T05:17:33.339Z,11.40
2022-11-27T05:20:02.017Z,11.10
2022-11-27T05:22:31.114Z,10.70
2022-11-27T05:24:59.826Z,11.40
2022-11-27T05:27:28.541Z,10.70
2022-11-27T05:29:57.202Z,10.40
2022-11-27T05:32:25.913Z,12.00
2022-11-27T05:34:54.636Z,11.80
2022-11-27T05:37:23.381Z,11.40
2022-11-27T05:39:52.083Z,11.10
2022-11-27T05:42:20.779Z,10.50
2022-11-27T05:44:53.904Z,10.40
2022-11-27T05:47:26.013Z,11.30
2022-11-27T05:49:54.821Z,10.90
2022-11-27T05:52:23.592Z,11.70
2022-11-27T05:54:52.302Z,11.10
2022-11-27T05:57:21.002Z,12.10
2022-11-27T05:59:49.769Z,11.30
2022-11-27T06:02:22.577Z,11.20
2022-11-27T06:04:52.789Z,11.80
2022-11-27T06:07:21.640Z,11.70
2022-11-27T06:09:50.436Z,10.60
2022-11-27T06:12:19.227Z,10.60
2022-11-27T06:14:47.935Z,11.30
2022-11-27T06:17:16.903Z,10.80
2022-11-27T06:19:45.641Z,11.90
2022-11-27T06:22:14.401Z,11.70
2022-11-27T06:24:43.253Z,10.40
2022-11-27T06:27:12.164Z,12.00
2022-11-27T06:29:40.929Z,10.90
2022-11-27T06:32:09.674Z,11.30
2022-11-27T06:34:38.701Z,11.70
2022-11-27T06:37:12.873Z,11.60
2022-11-27T06:39:41.991Z,11.20
2022-11-27T06:42:10.853Z,11.50
2022-11-27T06:44:39.745Z,11.50
2022-11-27T06:47:08.659Z,11.90
2022-11-27T06:49:37.550Z,11.50
2022-11-27T06:52:06.296Z,13.40
2022-11-27T06:54:34.948Z,12.40
2022-11-27T06:57:03.835Z,12.40
2022-11-27T06:59:32.550Z,12.20
2022-11-27T07:02:01.254Z,12.70
2022-11-27T07:04:30.043Z,13.40
2022-11-27T07:06:58.960Z,13.10
2022-11-27T07:09:27.660Z,13.30
2022-11-27T07:11:56.420Z,13.60
2022-11-27T07:14:25.118Z,13.60
2022-11-27T07:16:54.041Z,13.30
2022-11-27T07:19:22.838Z,13.30
2022-11-27T07:21:51.579Z,14.00
2022-11-27T07:24:20.556Z,14.20
2022-11-27T07:26:49.424Z,14.10
2022-11-27T07:29:18.135Z,14.20
2022-11-27T07:31:47.361Z,13.70
2022-11-27T07:34:21.250Z,15.10
2022-11-27T07:36:50.708Z,14.80
2022-11-27T07:39:28.727Z,14.10
2022-11-27T07:42:37.399Z,15.00
2022-11-27T07:44:57.108Z,14.10
2022-11-27T07:47:25.812Z,14.80
2022-11-27T07:49:55.295Z,15.60
2022-11-27T07:52:24.014Z,14.00
2022-11-27T07:54:52.798Z,14.60
2022-11-27T07:57:21.594Z,14.80
2022-11-27T07:59:50.430Z,14.40
2022-11-27T08:02:19.189Z,15.50
2022-11-27T08:04:48.115Z,14.20
2022-11-27T08:07:16.963Z,14.90
2022-11-27T08:09:45.743Z,14.50
2022-11-27T08:12:14.573Z,15.00
2022-11-27T08:14:43.430Z,14.90
2022-11-27T08:17:12.954Z,16.00
2022-11-27T08:19:41.679Z,14.60
2022-11-27T08:22:13.935Z,15.00
2022-11-27T08:24:43.175Z,14.50
2022-11-27T08:27:11.969Z,15.10
2022-11-27T08:29:40.749Z,15.20
2022-11-27T08:32:09.786Z,15.80
2022-11-27T08:34:38.949Z,15.70
2022-11-27T08:37:07.938Z,15.30
2022-11-27T08:39:36.640Z,15.90
2022-11-27T08:42:05.359Z,15.00
2022-11-27T08:44:34.323Z,13.90
2022-11-27T08:47:03.017Z,15.90
2022-11-27T08:49:31.788Z,15.40
2022-11-27T08:52:00.485Z,15.20
2022-11-27T08:54:29.190Z,15.40
2022-11-27T08:56:57.934Z,14.70
2022-11-27T08:59:26.762Z,14.80
2022-11-27T09:01:55.468Z,15.10
2022-11-27T09:04:24.316Z,15.70
2022-11-27T09:06:58.116Z,58.60
2022-11-27T09:09:27.799Z,17.80
2022-11-27T09:11:56.609Z,18.20
2022-11-27T09:14:25.334Z,16.60
2022-11-27T09:16:54.483Z,19.80
2022-11-27T09:19:23.341Z,21.20
2022-11-27T09:21:52.158Z,17.30
2022-11-27T09:24:21.048Z,27.60
2022-11-27T09:26:49.820Z,37.80
2022-11-27T09:29:18.629Z,25.20
2022-11-27T09:31:47.581Z,19.50
2022-11-27T09:34:16.478Z,38.80
2022-11-27T09:36:45.260Z,35.80
2022-11-27T09:39:15.642Z,25.30
2022-11-27T09:41:46.738Z,20.20
2022-11-27T09:44:39.696Z,19.60
2022-11-27T09:47:21.346Z,21.30
2022-11-27T09:49:51.844Z,19.80
2022-11-27T09:52:37.254Z,24.30
2022-11-27T09:55:11.232Z,20.40
2022-11-27T09:57:41.831Z,29.60
2022-11-27T10:00:16.909Z,20.20
2022-11-27T10:02:45.944Z,20.00
2022-11-27T10:05:21.878Z,18.00
2022-11-27T10:08:03.215Z,25.60
2022-11-27T10:10:39.777Z,18.20
2022-11-27T10:13:20.860Z,18.20
2022-11-27T10:16:08.553Z,16.80
2022-11-27T10:18:43.988Z,19.70
2022-11-27T10:21:12.806Z,17.30
2022-11-27T10:23:46.625Z,17.90
2022-11-27T10:26:18.575Z,28.10
2022-11-27T10:28:59.259Z,20.80
2022-11-27T10:31:35.346Z,20.40
2022-11-27T10:34:19.450Z,18.00
2022-11-27T10:36:49.948Z,17.50
2022-11-27T10:39:41.091Z,17.50
2022-11-27T10:42:10.313Z,19.20
2022-11-27T10:44:44.272Z,19.10
2022-11-27T10:47:13.907Z,17.00
2022-11-27T10:49:42.852Z,16.40
2022-11-27T10:52:15.725Z,19.30
2022-11-27T10:54:46.976Z,17.60
2022-11-27T10:57:21.593Z,17.60
2022-11-27T11:00:09.052Z,17.20
2022-11-27T11:02:39.335Z,18.80
2022-11-27T11:08:19.324Z,17.30
2022-11-27T11:10:58.255Z,17.70
2022-11-27T11:13:28.007Z,17.80
2022-11-27T11:16:14.729Z,18.50
2022-11-27T11:18:51.007Z,18.10
2022-11-27T11:21:25.421Z,17.40
2022-11-27T11:24:04.501Z,17.40
2022-11-27T11:26:35.880Z,19.70
2022-11-27T11:29:06.521Z,17.30
2022-11-27T11:31:37.696Z,16.20
2022-11-27T11:34:20.490Z,17.10
2022-11-27T11:37:18.462Z,18.80
2022-11-27T11:39:52.593Z,17.30
2022-11-27T11:42:22.808Z,17.10
2022-11-27T11:44:53.433Z,17.20
2022-11-27T11:47:24.936Z,18.30
2022-11-27T11:49:55.015Z,17.20
2022-11-27T11:52:23.815Z,16.40
2022-11-27T11:54:52.616Z,17.70
2022-11-27T11:57:39.554Z,21.00
2022-11-27T12:00:31.597Z,22.20
2022-11-27T12:03:22.981Z,20.60
2022-11-27T12:05:54.890Z,20.90
2022-11-27T12:08:23.572Z,21.00
2022-11-27T12:11:07.701Z,17.30
2022-11-27T12:13:55.032Z,19.70
2022-11-27T12:16:26.794Z,20.20
2022-11-27T12:19:16.037Z,19.00
2022-11-27T12:21:51.394Z,21.00
2022-11-27T12:24:25.977Z,36.00
2022-11-27T12:27:07.017Z,16.90
2022-11-27T12:29:44.916Z,16.90
2022-11-27T12:32:13.681Z,16.10
2022-11-27T12:35:01.203Z,44.00
2022-11-27T12:37:38.989Z,18.30
2022-11-27T12:40:20.106Z,17.10
2022-11-27T12:42:54.773Z,16.90
2022-11-27T12:45:23.553Z,25.90
2022-11-27T12:47:52.628Z,18.50
2022-11-27T12:50:30.850Z,17.30
2022-11-27T12:53:16.778Z,17.40
2022-11-27T12:55:58.797Z,17.50
2022-11-27T12:58:32.944Z,17.40
2022-11-27T13:01:06.791Z,17.60
2022-11-27T13:03:59.973Z,17.90
2022-11-27T13:06:30.933Z,17.30
2022-11-27T13:09:05.774Z,17.90
2022-11-27T13:11:37.120Z,17.70
2022-11-27T13:14:08.817Z,18.00
2022-11-27T13:16:46.613Z,18.30
2022-11-27T13:19:32.765Z,17.20
2022-11-27T13:22:06.381Z,16.90
2022-11-27T13:24:35.724Z,18.30
2022-11-27T13:27:10.371Z,16.10
2022-11-27T13:29:53.857Z,18.20
2022-11-27T13:32:25.916Z,18.10
2022-11-27T13:34:56.389Z,16.90
2022-11-27T13:37:36.352Z,17.00
2022-11-27T13:40:18.080Z,17.10
2022-11-27T13:42:49.596Z,17.10
2022-11-27T13:45:20.578Z,15.60
2022-11-27T13:47:50.238Z,17.00
2022-11-27T13:50:28.202Z,16.90
2022-11-27T13:53:03.268Z,17.00
2022-11-27T13:55:36.221Z,17.00
2022-11-27T14:00:44.561Z,16.70
2022-11-27T14:03:24.060Z,17.70
2022-11-27T14:05:54.332Z,17.80
2022-11-27T14:08:25.535Z,18.10
2022-11-27T14:10:57.105Z,17.50
2022-11-27T14:13:39.021Z,17.50
2022-11-27T14:16:28.093Z,17.20
2022-11-27T14:18:58.041Z,17.40
2022-11-27T14:21:35.838Z,16.40
2022-11-27T14:24:22.949Z,17.50
2022-11-27T14:26:52.482Z,17.60
2022-11-27T14:29:21.895Z,18.30
2022-11-27T14:31:58.268Z,19.80
2022-11-27T14:34:30.880Z,17.90
2022-11-27T14:37:00.477Z,18.30
2022-11-27T14:39:30.938Z,17.00
2022-11-27T14:42:00.867Z,17.70
2022-11-27T14:44:30.065Z,17.20
2022-11-27T14:47:00.524Z,17.60
2022-11-27T14:49:30.152Z,20.20
2022-11-27T14:52:06.844Z,18.30
2022-11-27T14:54:37.268Z,18.60
2022-11-27T14:57:06.904Z,18.90
2022-11-27T14:59:35.626Z,17.50
2022-11-27T15:02:29.036Z,16.90
2022-11-27T15:05:02.445Z,17.10
2022-11-27T15:07:31.781Z,17.70
2022-11-27T15:10:02.183Z,17.50
2022-11-27T15:12:32.929Z,17.00
2022-11-27T15:15:09.248Z,18.10
2022-11-27T15:17:39.210Z,17.30
2022-11-27T15:20:14.370Z,17.30
2022-11-27T15:22:54.151Z,16.40
2022-11-27T15:25:29.310Z,17.10
2022-11-27T15:27:57.984Z,15.20
2022-11-27T15:30:26.868Z,15.80
2022-11-27T15:32:56.082Z,17.50
2022-11-27T15:35:25.004Z,17.70
2022-11-27T15:37:55.854Z,17.70
2022-11-27T15:40:28.229Z,16.70
2022-11-27T15:42:56.996Z,17.20
2022-11-27T15:45:32.490Z,16.40
2022-11-27T15:48:02.206Z,16.20
2022-11-27T15:50:31.206Z,16.40
2022-11-27T15:53:01.072Z,15.70
2022-11-27T15:55:30.643Z,16.10
2022-11-27T15:57:59.695Z,16.70
2022-11-27T16:00:28.535Z,16.80
2022-11-27T16:02:57.359Z,15.80
2022-11-27T16:05:26.183Z,15.10
2022-11-27T16:07:55.609Z,15.40
2022-11-27T16:10:24.632Z,17.70
2022-11-27T16:12:55.216Z,17.90
2022-11-27T16:15:26.682Z,17.20
2022-11-27T16:17:58.878Z,20.90
2022-11-27T16:20:27.665Z,16.50
2022-11-27T16:22:56.444Z,20.30
2022-11-27T16:25:25.472Z,18.60
2022-11-27T16:27:58.102Z,19.80
2022-11-27T16:30:30.090Z,17.60
2022-11-27T16:32:58.952Z,18.20
2022-11-27T16:35:27.884Z,16.50
2022-11-27T16:37:56.747Z,15.70
2022-11-27T16:40:25.532Z,15.90
2022-11-27T16:42:54.276Z,15.70
2022-11-27T16:45:23.093Z,16.40
2022-11-27T16:47:51.898Z,15.70
2022-11-27T16:50:20.609Z,16.30
2022-11-27T16:52:54.442Z,15.50
2022-11-27T16:55:23.963Z,15.60
2022-11-27T16:57:52.806Z,16.10
2022-11-27T17:00:21.540Z,15.40
2022-11-27T17:02:50.406Z,16.90
2022-11-27T17:05:19.279Z,17.40
2022-11-27T17:07:48.084Z,17.20
2022-11-27T17:10:20.061Z,18.10
2022-11-27T17:12:48.899Z,17.80
2022-11-27T17:15:17.829Z,16.60
2022-11-27T17:17:46.910Z,17.20
2022-11-27T17:20:15.699Z,16.50
2022-11-27T17:22:44.426Z,17.30
2022-11-27T17:25:13.174Z,18.00
2022-11-27T17:27:42.600Z,18.70
2022-11-27T17:30:11.550Z,18.70
2022-11-27T17:32:40.303Z,18.10
2022-11-27T17:35:09.233Z,16.50
2022-11-27T17:37:37.980Z,16.20
2022-11-27T17:40:07.234Z,16.40
2022-11-27T17:42:36.092Z,17.10
2022-11-27T17:45:05.447Z,18.80
2022-11-27T17:47:34.224Z,18.30
2022-11-27T17:50:03.166Z,17.00
2022-11-27T17:52:31.898Z,16.50
2022-11-27T17:55:00.712Z,16.10
2022-11-27T17:57:29.492Z,17.80
2022-11-27T17:59:58.271Z,17.00
2022-11-27T18:02:27.117Z,17.60
2022-11-27T18:04:56.121Z,16.60
2022-11-27T18:07:25.057Z,16.90
2022-11-27T18:09:54.446Z,16.00
2022-11-27T18:12:23.159Z,19.10
2022-11-27T18:14:56.492Z,19.40
2022-11-27T18:17:28.660Z,20.30
2022-11-27T18:19:58.964Z,19.20
2022-11-27T18:22:27.871Z,18.60
2022-11-27T18:24:56.687Z,18.00
2022-11-27T18:27:25.462Z,18.30
2022-11-27T18:29:54.279Z,19.70
2022-11-27T18:32:23.198Z,20.60
2022-11-27T18:34:53.581Z,21.50
2022-11-27T18:37:23.516Z,20.10
2022-11-27T18:39:52.264Z,21.50
2022-11-27T18:42:21.068Z,20.20
2022-11-27T18:44:49.885Z,21.60
2022-11-27T18:47:18.689Z,21.40
2022-11-27T18:49:47.827Z,21.10
2022-11-27T18:52:17.453Z,21.40
2022-11-27T18:54:46.169Z,20.80
2022-11-27T18:57:14.955Z,21.50
2022-11-27T18:59:44.248Z,20.10
2022-11-27T19:02:13.644Z,19.40
2022-11-27T19:04:44.409Z,20.60
2022-11-27T19:07:13.357Z,21.50
2022-11-27T19:09:42.544Z,21.40
2022-11-27T19:12:12.829Z,21.80
2022-11-27T19:14:41.946Z,20.50
2022-11-27T19:17:11.218Z,19.40
2022-11-27T19:19:55.723Z,21.00
2022-11-27T19:22:24.998Z,19.50
2022-11-27T19:24:53.727Z,19.90
2022-11-27T19:27:22.461Z,20.00
2022-11-27T19:29:51.264Z,20.50
2022-11-27T19:32:20.091Z,20.10
2022-11-27T19:34:49.672Z,21.00
2022-11-27T19:37:28.866Z,20.10
2022-11-27T19:40:05.091Z,20.80
2022-11-27T19:42:33.874Z,20.10
2022-11-27T19:45:02.614Z,21.00
2022-11-27T19:47:31.403Z,20.40
2022-11-27T19:50:00.301Z,20.70
2022-11-27T19:52:29.078Z,20.40
2022-11-27T19:54:57.759Z,20.60
2022-11-27T19:57:26.625Z,19.20
2022-11-27T19:59:55.809Z,21.00
2022-11-27T20:02:24.597Z,19.50
2022-11-27T20:04:53.918Z,20.10
2022-11-27T20:07:22.721Z,19.50
2022-11-27T20:09:52.248Z,20.20
2022-11-27T20:12:21.017Z,20.40
2022-11-27T20:14:49.724Z,19.10
2022-11-27T20:17:19.232Z,19.20
2022-11-27T20:19:48.104Z,18.50
2022-11-27T20:22:16.840Z,18.90
2022-11-27T20:25:11.126Z,19.70
2022-11-27T20:27:34.366Z,19.90
2022-11-27T20:30:03.892Z,20.40
2022-11-27T20:32:32.757Z,19.10
2022-11-27T20:35:01.476Z,19.10
2022-11-27T20:37:30.236Z,20.10
2022-11-27T20:39:59.113Z,20.10
2022-11-27T20:42:27.799Z,19.20
2022-11-27T20:44:56.539Z,20.20
2022-11-27T20:47:25.212Z,19.00
2022-11-27T20:49:53.932Z,19.50
2022-11-27T20:52:22.673Z,19.20
2022-11-27T20:54:51.500Z,19.10
2022-11-27T20:57:20.212Z,18.50
2022-11-27T20:59:49.040Z,18.50
2022-11-27T21:02:17.769Z,18.60
2022-11-27T21:04:46.689Z,18.70
2022-11-27T21:07:15.820Z,18.70
2022-11-27T21:09:44.679Z,17.70
2022-11-27T21:12:13.764Z,18.30
2022-11-27T21:14:43.768Z,19.00
2022-11-27T21:17:12.522Z,17.40
2022-11-27T21:19:41.591Z,19.00
2022-11-27T21:22:10.700Z,17.70
2022-11-27T21:24:39.826Z,19.90
2022-11-27T21:27:09.887Z,17.60
2022-11-27T21:29:38.781Z,16.60
2022-11-27T21:32:07.693Z,19.10
2022-11-27T21:34:36.395Z,20.00
2022-11-27T21:37:05.122Z,19.50
2022-11-27T21:39:33.887Z,19.50
2022-11-27T21:42:02.569Z,20.00
2022-11-27T21:44:31.404Z,19.70
2022-11-27T21:47:00.214Z,20.40
2022-11-27T21:49:28.897Z,19.20
2022-11-27T21:51:57.565Z,20.40
2022-11-27T21:54:27.177Z,19.70
2022-11-27T21:56:55.937Z,20.30
2022-11-27T21:59:25.000Z,20.70
2022-11-27T22:01:54.029Z,20.80
2022-11-27T22:04:23.167Z,20.30
2022-11-27T22:06:53.111Z,20.60
2022-11-27T22:09:21.815Z,18.70
2022-11-27T22:11:52.056Z,20.30
2022-11-27T22:14:20.759Z,20.00
2022-11-27T22:16:49.547Z,19.50
2022-11-27T22:19:18.556Z,19.40
2022-11-27T22:21:48.421Z,18.30
2022-11-27T22:24:19.684Z,18.90
2022-11-27T22:26:48.948Z,18.30
2022-11-27T22:29:17.627Z,19.00
2022-11-27T22:31:46.344Z,19.50
2022-11-27T22:34:15.823Z,19.00
2022-11-27T22:36:44.602Z,18.90
2022-11-27T22:39:13.448Z,19.60
2022-11-27T22:41:42.304Z,18.30
2022-11-27T22:44:14.163Z,19.20
2022-11-27T22:46:43.156Z,16.60
2022-11-27T22:49:15.959Z,18.80
2022-11-27T22:51:45.228Z,17.50
2022-11-27T22:54:15.160Z,18.20
2022-11-27T22:56:45.666Z,18.00
2022-11-27T23:02:03.821Z,17.10
2022-11-27T23:04:33.253Z,17.40
2022-11-27T23:07:02.048Z,18.00
2022-11-27T23:09:30.848Z,18.10
2022-11-27T23:11:59.596Z,17.60
2022-11-27T23:14:28.496Z,18.40
2022-11-27T23:16:57.406Z,17.80
2022-11-27T23:19:26.123Z,17.80
2022-11-27T23:21:54.932Z,18.30
2022-11-27T23:24:23.673Z,18.70
2022-11-27T23:26:52.391Z,18.00
2022-11-27T23:29:21.070Z,17.50
2022-11-27T23:31:50.126Z,19.20
2022-11-27T23:34:18.855Z,18.70
2022-11-27T23:36:47.570Z,19.50
2022-11-27T23:39:16.356Z,18.80
2022-11-27T23:41:46.291Z,19.00
2022-11-27T23:44:15.103Z,17.90
2022-11-27T23:46:44.014Z,18.30
2022-11-27T23:49:12.700Z,18.20
2022-11-27T23:51:41.383Z,18.60
2022-11-27T23:54:10.628Z,18.70
2022-11-27T23:56:39.725Z,18.70
2022-11-27T23:59:09.085Z,18.80
